Parker Lake, Missouri
Current Conditions -  °F | °C
As of 6:15 PM on Monday 22 Dec 2014 (Local Time) from KFAM Reporting Station
Overcast Overcast  
Wind Chill: 44°   Ceiling: 400
Heat Index: 48°   Visibility: 5mi
Dew Point: 48°   Wind: 9mph
Humidity: 100%   Direction: 150°SSE
Pressure: 29.57"   Gusts: NA
Location:  37.7127°N, 89.8903°W
Report Text: KFAM 230015Z AUTO 15008KT 5SM OVC004 09/09 A2957 RMK AO1
Loading
Personal Weather Stations






























Interactive Weather Map New forecast layout! Learn more

10-Day Weather Forecast

Advertisements
Track Severe Weather on mobile